Time;durP1;ratioP1;P1;durP2;ratioP2;P2;SDS_P1;SDS_P2;PMS_P1;PMS_P2;Temp;Humidity;BMP_temperature;BMP_pressure;BME280_temperature;BME280_humidity;BME280_pressure;Samples;Min_cycle;Max_cycle;Signal;HPM_P1;HPM_P2
2021/05/04 00:01:25;;;;;;;3.17;2.83;;;;;;;2.88;89.33;100577.25;4974872;28;20276;-74
2021/05/04 00:03:50;;;;;;;4.33;2.97;;;;;;;2.83;88.76;100574.66;4977596;28;20217;-75
2021/05/04 00:06:16;;;;;;;3.10;2.73;;;;;;;2.86;88.24;100570.38;4980458;28;20719;-75
2021/05/04 00:08:42;;;;;;;3.53;2.90;;;;;;;2.86;88.25;100571.22;4977101;28;20214;-74
2021/05/04 00:11:08;;;;;;;3.53;2.50;;;;;;;2.85;87.50;100556.66;4981256;28;20725;-74
2021/05/04 00:13:34;;;;;;;4.87;3.03;;;;;;;2.83;87.78;100551.50;4979511;28;20200;-75
2021/05/04 00:16:00;;;;;;;3.17;2.70;;;;;;;2.84;88.11;100553.19;4972796;28;20250;-75
2021/05/04 00:18:27;;;;;;;2.80;2.47;;;;;;;2.84;86.87;100555.78;4976228;28;20579;-75
2021/05/04 00:20:53;;;;;;;2.83;2.57;;;;;;;2.87;87.77;100538.59;4978011;28;20241;-74
2021/05/04 00:23:19;;;;;;;2.77;2.50;;;;;;;2.86;87.81;100540.31;4974615;28;20227;-75
2021/05/04 00:25:45;;;;;;;3.20;2.63;;;;;;;2.87;87.62;100538.59;4972197;28;20705;-74
2021/05/04 00:28:11;;;;;;;4.07;2.67;;;;;;;2.86;87.54;100527.44;4979493;28;20205;-75
2021/05/04 00:30:37;;;;;;;2.73;2.37;;;;;;;2.89;87.29;100531.78;4975605;28;20292;-75
2021/05/04 00:33:03;;;;;;;2.63;2.43;;;;;;;2.91;87.77;100522.34;4978641;28;20617;-75
2021/05/04 00:35:30;;;;;;;4.03;2.50;;;;;;;2.93;87.44;100521.47;4982004;28;20291;-74
2021/05/04 00:37:56;;;;;;;4.40;2.83;;;;;;;2.95;87.16;100517.19;4973829;28;20248;-74
2021/05/04 00:40:22;;;;;;;3.67;2.80;;;;;;;3.02;87.87;100518.06;4974636;28;20214;-73
2021/05/04 00:42:48;;;;;;;4.07;2.77;;;;;;;3.03;86.37;100512.06;4979729;28;20228;-74
2021/05/04 00:45:15;;;;;;;3.03;2.60;;;;;;;3.09;86.52;100506.06;4978635;28;20584;-72
2021/05/04 00:47:41;;;;;;;4.93;2.47;;;;;;;3.13;86.55;100494.91;4983409;28;20198;-75
2021/05/04 00:50:08;;;;;;;2.67;2.33;;;;;;;3.13;85.96;100494.91;4972774;28;20208;-74
2021/05/04 00:52:35;;;;;;;3.67;2.50;;;;;;;3.16;85.98;100500.06;4978818;28;20226;-75
2021/05/04 00:55:04;;;;;;;2.43;2.23;;;;;;;3.17;85.31;100491.50;4984748;28;20197;-74
2021/05/04 00:57:31;;;;;;;2.63;2.27;;;;;;;3.20;85.70;100501.78;4986381;28;20220;-75
2021/05/04 00:59:59;;;;;;;2.70;2.20;;;;;;;3.22;85.08;100494.94;4978457;28;20198;-74
2021/05/04 01:02:26;;;;;;;3.27;2.70;;;;;;;3.23;85.66;100484.63;4979590;28;20598;-74
2021/05/04 01:04:51;;;;;;;3.20;2.50;;;;;;;3.27;86.66;100482.91;4974830;28;20210;-73
2021/05/04 01:07:17;;;;;;;3.37;2.43;;;;;;;3.26;84.95;100485.50;4980950;28;20205;-74
2021/05/04 01:09:45;;;;;;;4.20;2.73;;;;;;;3.26;85.73;100480.34;4987514;28;20229;-75
2021/05/04 01:12:11;;;;;;;4.70;2.40;;;;;;;3.28;85.13;100473.47;4986298;28;20226;-74
2021/05/04 01:14:38;;;;;;;3.33;2.47;;;;;;;3.33;85.23;100471.75;4984532;28;20206;-75
2021/05/04 01:17:04;;;;;;;3.10;2.67;;;;;;;3.32;85.35;100472.59;4989048;28;20201;-75
2021/05/04 01:19:30;;;;;;;3.00;2.47;;;;;;;3.32;85.38;100470.88;4978120;28;20232;-74
2021/05/04 01:21:56;;;;;;;3.63;2.60;;;;;;;3.34;85.23;100461.47;4984115;28;20214;-74
2021/05/04 01:24:22;;;;;;;3.33;2.30;;;;;;;3.35;84.79;100458.00;4985339;28;20303;-72
2021/05/04 01:26:49;;;;;;;5.57;3.07;;;;;;;3.37;84.46;100458.88;4979831;28;20205;-75
2021/05/04 01:29:15;;;;;;;3.70;2.53;;;;;;;3.42;84.59;100456.28;4978253;28;20237;-75
2021/05/04 01:31:42;;;;;;;5.17;2.80;;;;;;;3.44;84.53;100457.16;4979235;28;20745;-75
2021/05/04 01:34:08;;;;;;;3.37;2.47;;;;;;;3.48;84.07;100458.00;4979188;28;20206;-74
2021/05/04 01:36:35;;;;;;;3.93;2.53;;;;;;;3.50;84.17;100448.56;4982473;28;20204;-74
2021/05/04 01:39:04;;;;;;;4.17;2.27;;;;;;;3.50;84.01;100445.97;4981565;28;20220;-75
2021/05/04 01:41:31;;;;;;;3.30;2.50;;;;;;;3.50;84.48;100439.13;4976561;28;20221;-74
2021/05/04 01:43:57;;;;;;;4.40;2.67;;;;;;;3.50;84.58;100440.81;4974587;28;20226;-74
2021/05/04 01:46:24;;;;;;;3.07;2.57;;;;;;;3.52;83.59;100433.97;4979979;28;20577;-74
2021/05/04 01:48:50;;;;;;;4.10;2.87;;;;;;;3.51;83.71;100433.09;4976038;28;20217;-74
2021/05/04 01:51:16;;;;;;;2.90;2.30;;;;;;;3.51;84.33;100432.25;4983879;28;20225;-74
2021/05/04 01:53:42;;;;;;;3.07;2.37;;;;;;;3.51;84.53;100432.25;4985804;28;20285;-75
2021/05/04 01:56:09;;;;;;;4.20;2.93;;;;;;;3.50;84.95;100415.03;4984117;28;20205;-74
2021/05/04 01:58:35;;;;;;;3.03;2.73;;;;;;;3.50;84.53;100409.88;4979896;28;20605;-74
2021/05/04 02:01:01;;;;;;;3.07;2.60;;;;;;;3.49;86.21;100398.72;4975201;28;20218;-74
2021/05/04 02:03:27;;;;;;;3.50;2.33;;;;;;;3.44;83.96;100399.59;4980418;28;20216;-72
2021/05/04 02:05:53;;;;;;;4.33;2.80;;;;;;;3.40;83.97;100397.00;4979145;28;20292;-75
2021/05/04 02:08:19;;;;;;;3.30;2.60;;;;;;;3.41;84.24;100387.56;4976370;28;20240;-75
2021/05/04 02:10:49;;;;;;;3.43;2.67;;;;;;;3.39;83.99;100390.16;4977461;28;20272;-73
2021/05/04 02:13:16;;;;;;;6.03;2.47;;;;;;;3.39;84.36;100379.84;4986414;28;20677;-73
2021/05/04 02:15:42;;;;;;;3.17;2.80;;;;;;;3.36;83.95;100374.69;4988026;28;20268;-74
2021/05/04 02:18:08;;;;;;;4.23;2.80;;;;;;;3.37;83.85;100370.38;4976201;28;20212;-73
2021/05/04 02:20:34;;;;;;;4.90;2.67;;;;;;;3.38;83.82;100360.06;4970209;28;20237;-73
2021/05/04 02:23:00;;;;;;;3.97;2.90;;;;;;;3.41;83.40;100354.94;4982345;28;20662;-74
2021/05/04 02:25:26;;;;;;;4.03;2.47;;;;;;;3.41;82.86;100354.03;4978008;28;20252;-73
2021/05/04 02:27:52;;;;;;;3.13;2.70;;;;;;;3.42;83.66;100354.03;4968961;28;20590;-74
2021/05/04 02:30:20;;;;;;;4.13;2.60;;;;;;;3.41;82.86;100346.31;4977218;28;20213;-74
2021/05/04 02:32:46;;;;;;;4.37;2.70;;;;;;;3.43;83.04;100344.63;4981984;28;20796;-73
2021/05/04 02:35:12;;;;;;;3.67;2.83;;;;;;;3.45;82.54;100335.16;4979990;28;20198;-73
2021/05/04 02:37:38;;;;;;;4.03;2.77;;;;;;;3.46;82.57;100336.84;4980412;28;20252;-73
2021/05/04 02:40:05;;;;;;;3.90;2.77;;;;;;;3.47;82.73;100333.44;4982203;28;20603;-74
2021/05/04 02:42:31;;;;;;;3.83;2.93;;;;;;;3.47;82.04;100322.28;4979658;28;20224;-74
2021/05/04 02:44:57;;;;;;;3.47;2.77;;;;;;;3.48;82.46;100316.25;4985736;28;20700;-73
2021/05/04 02:47:24;;;;;;;3.17;2.83;;;;;;;3.52;82.01;100310.22;4970169;28;20201;-73
2021/05/04 02:49:50;;;;;;;5.37;3.40;;;;;;;3.54;82.27;100299.03;4984900;28;20196;-74
2021/05/04 02:52:16;;;;;;;4.07;3.07;;;;;;;3.59;82.15;100304.19;4972938;28;20226;-75
2021/05/04 02:54:42;;;;;;;4.83;3.03;;;;;;;3.63;82.01;100303.31;4982897;28;20609;-74
2021/05/04 02:57:08;;;;;;;4.13;3.10;;;;;;;3.69;81.06;100302.44;4969269;28;20210;-73
2021/05/04 02:59:34;;;;;;;3.30;2.63;;;;;;;3.72;81.70;100302.44;4974257;28;20205;-72
2021/05/04 03:02:00;;;;;;;5.90;3.07;;;;;;;3.79;81.92;100293.81;4979348;28;20963;-73
2021/05/04 03:04:27;;;;;;;3.97;3.00;;;;;;;3.82;81.74;100282.59;4976754;28;20214;-73
2021/05/04 03:06:53;;;;;;;4.73;3.40;;;;;;;3.86;80.64;100285.19;4972371;28;20871;-73
2021/05/04 03:09:19;;;;;;;5.20;2.97;;;;;;;3.91;80.36;100280.03;4983296;28;20280;-73
2021/05/04 03:11:45;;;;;;;3.77;3.07;;;;;;;3.93;80.60;100276.56;4974577;28;20728;-75
2021/05/04 03:14:11;;;;;;;4.53;3.00;;;;;;;3.94;80.26;100277.41;4983738;28;20206;-75
2021/05/04 03:16:37;;;;;;;3.40;2.93;;;;;;;3.97;81.00;100267.06;4978436;28;20252;-75
2021/05/04 03:19:03;;;;;;;3.83;2.90;;;;;;;3.98;80.22;100261.91;4982488;28;20871;-74
2021/05/04 03:21:30;;;;;;;3.27;2.97;;;;;;;4.04;79.23;100262.75;4983406;28;20229;-73
2021/05/04 03:23:56;;;;;;;3.37;3.07;;;;;;;4.06;79.78;100256.69;4985597;28;20231;-71
2021/05/04 03:26:22;;;;;;;3.83;3.10;;;;;;;4.08;79.02;100255.00;4980300;28;20594;-71
2021/05/04 03:28:48;;;;;;;5.73;2.90;;;;;;;4.09;79.15;100248.09;4979042;28;20225;-72
2021/05/04 03:31:14;;;;;;;3.60;3.07;;;;;;;4.10;79.61;100242.94;4968117;28;20317;-72
2021/05/04 03:33:40;;;;;;;5.43;3.17;;;;;;;4.10;79.26;100231.78;4972669;28;20229;-75
2021/05/04 03:36:06;;;;;;;4.80;3.20;;;;;;;4.11;78.87;100225.72;4997904;28;20697;-75
2021/05/04 03:38:33;;;;;;;4.67;3.10;;;;;;;4.13;78.16;100217.13;4970546;28;20198;-74
2021/05/04 03:41:00;;;;;;;6.60;3.10;;;;;;;4.15;78.56;100220.56;4975768;28;20218;-74
2021/05/04 03:43:25;;;;;;;4.83;3.17;;;;;;;4.17;77.93;100218.81;4976047;28;20216;-75
2021/05/04 03:45:51;;;;;;;3.97;3.23;;;;;;;4.18;78.12;100202.44;4968466;28;20622;-75
2021/05/04 03:48:17;;;;;;;4.33;3.10;;;;;;;4.22;78.77;100200.72;4979463;28;20300;-74
2021/05/04 03:50:44;;;;;;;6.60;3.40;;;;;;;4.25;78.10;100192.09;4975020;28;20212;-74
2021/05/04 03:53:11;;;;;;;4.17;3.40;;;;;;;4.25;77.92;100185.19;4980530;28;20201;-73
2021/05/04 03:55:37;;;;;;;5.17;3.07;;;;;;;4.30;77.79;100188.59;4969824;28;20202;-73
2021/05/04 03:58:04;;;;;;;5.43;3.43;;;;;;;4.35;77.47;100175.69;4976002;28;20213;-71
2021/05/04 04:00:30;;;;;;;5.73;3.50;;;;;;;4.39;77.44;100179.09;4972827;28;20221;-71
2021/05/04 04:02:55;;;;;;;4.40;2.97;;;;;;;4.45;77.29;100171.28;4976771;28;20319;-72
2021/05/04 04:05:22;;;;;;;4.17;3.10;;;;;;;4.48;77.28;100169.53;4984007;28;20230;-73
2021/05/04 04:07:47;;;;;;;4.37;3.60;;;;;;;4.54;75.90;100163.47;4982493;28;20208;-72
2021/05/04 04:10:14;;;;;;;5.83;3.17;;;;;;;4.59;76.97;100159.13;4975884;28;20206;-72
2021/05/04 04:12:40;;;;;;;5.20;3.37;;;;;;;4.63;76.91;100157.38;4987706;28;20595;-73
2021/05/04 04:15:07;;;;;;;6.43;3.60;;;;;;;4.68;75.85;100155.63;4981230;28;20195;-72
2021/05/04 04:17:33;;;;;;;4.57;3.70;;;;;;;4.76;75.32;100152.94;4977709;28;20205;-73
2021/05/04 04:19:59;;;;;;;4.73;3.30;;;;;;;4.79;75.53;100143.44;4975661;28;20269;-72
2021/05/04 04:22:25;;;;;;;4.53;3.63;;;;;;;4.83;74.99;100139.09;4984761;28;20222;-73
2021/05/04 04:24:53;;;;;;;5.03;3.57;;;;;;;4.87;75.19;100139.06;4982806;28;20221;-72
2021/05/04 04:27:20;;;;;;;6.20;3.73;;;;;;;4.90;74.85;100133.00;4972155;28;20232;-72
2021/05/04 04:29:46;;;;;;;5.50;3.30;;;;;;;4.95;75.40;100113.13;4981728;28;20212;-73
2021/05/04 04:32:12;;;;;;;4.07;3.30;;;;;;;4.98;75.28;100115.69;4985902;28;20280;-72
2021/05/04 04:34:38;;;;;;;6.47;4.10;;;;;;;5.04;74.46;100110.44;4984916;28;20784;-73
2021/05/04 04:37:04;;;;;;;4.80;3.50;;;;;;;5.13;74.32;100105.16;4979429;28;20241;-72
2021/05/04 04:39:30;;;;;;;5.10;3.57;;;;;;;5.20;74.78;100100.75;4973640;28;20202;-71
2021/05/04 04:41:56;;;;;;;4.93;3.30;;;;;;;5.29;74.17;100104.97;4973671;28;20256;-73
2021/05/04 04:44:22;;;;;;;5.57;4.00;;;;;;;5.40;73.91;100099.66;4984497;28;20215;-73
2021/05/04 04:46:49;;;;;;;4.87;3.67;;;;;;;5.47;73.95;100098.69;4982424;28;20198;-73
2021/05/04 04:49:17;;;;;;;7.27;3.60;;;;;;;5.55;73.99;100085.69;4980772;28;20205;-73
2021/05/04 04:51:43;;;;;;;4.07;3.30;;;;;;;5.61;72.81;100082.97;4985186;28;20610;-72
2021/05/04 04:54:09;;;;;;;5.30;4.00;;;;;;;5.67;73.11;100085.50;4985124;28;20211;-70
2021/05/04 04:56:36;;;;;;;4.87;3.90;;;;;;;5.74;72.96;100081.09;4986368;28;20190;-73
2021/05/04 04:59:03;;;;;;;5.37;4.30;;;;;;;5.79;73.11;100077.56;4982898;28;20709;-73
2021/05/04 05:01:29;;;;;;;4.67;3.63;;;;;;;5.85;72.87;100074.00;4976600;28;20316;-73
2021/05/04 05:03:56;;;;;;;6.17;4.37;;;;;;;5.91;73.24;100070.47;4973984;28;20622;-73
2021/05/04 05:06:22;;;;;;;4.30;3.47;;;;;;;5.98;73.08;100061.75;4981205;28;20628;-72
2021/05/04 05:08:48;;;;;;;4.73;4.00;;;;;;;6.06;72.56;100065.94;4982326;28;20283;-71
2021/05/04 05:11:14;;;;;;;5.03;3.93;;;;;;;6.15;71.97;100054.56;4982602;28;20305;-73
2021/05/04 05:13:42;;;;;;;5.90;3.97;;;;;;;6.23;72.90;100044.09;4979060;28;20697;-72
2021/05/04 05:16:08;;;;;;;7.17;4.37;;;;;;;6.30;72.31;100043.09;4976965;28;20271;-71
2021/05/04 05:18:34;;;;;;;4.40;3.67;;;;;;;6.35;72.01;100037.81;4984134;28;20240;-71
2021/05/04 05:21:01;;;;;;;5.27;3.70;;;;;;;6.42;72.54;100035.13;4979627;28;20300;-72
2021/05/04 05:23:27;;;;;;;5.03;3.80;;;;;;;6.49;72.13;100028.09;4977403;28;20257;-73
2021/05/04 05:25:53;;;;;;;4.97;3.90;;;;;;;6.59;71.64;100026.16;4981985;28;20224;-73
2021/05/04 05:28:19;;;;;;;5.90;4.17;;;;;;;6.66;71.40;100022.56;4979851;28;20382;-73
2021/05/04 05:30:45;;;;;;;7.03;4.13;;;;;;;6.79;70.72;100025.78;4980883;28;20209;-73
2021/05/04 05:33:11;;;;;;;5.37;4.17;;;;;;;6.89;71.41;100016.06;4984209;28;20205;-72
2021/05/04 05:35:37;;;;;;;5.20;4.03;;;;;;;6.97;71.16;100015.03;4976907;28;20699;-72
2021/05/04 05:38:05;;;;;;;5.90;4.27;;;;;;;7.10;70.56;100012.19;4980511;28;20257;-73
2021/05/04 05:40:31;;;;;;;7.47;4.50;;;;;;;7.20;70.61;100011.09;4980260;28;20190;-72
2021/05/04 05:42:57;;;;;;;6.23;4.40;;;;;;;7.33;70.39;100009.06;4978250;28;20202;-71
2021/05/04 05:45:23;;;;;;;8.13;5.03;;;;;;;7.45;69.89;99997.56;4976484;28;20224;-72
2021/05/04 05:47:49;;;;;;;6.40;4.77;;;;;;;7.54;69.40;99990.41;4981194;28;20598;-71
2021/05/04 05:50:15;;;;;;;6.53;4.60;;;;;;;7.67;69.46;99985.81;4984459;28;20224;-73
2021/05/04 05:52:41;;;;;;;12.27;8.13;;;;;;;7.80;68.92;99988.09;4977667;28;20246;-73
2021/05/04 05:55:10;;;;;;;9.70;7.93;;;;;;;7.91;68.51;99976.53;4976685;28;20194;-72
2021/05/04 05:57:36;;;;;;;7.97;6.50;;;;;;;8.00;68.07;99970.25;4978030;28;20225;-73
2021/05/04 06:00:03;;;;;;;6.67;5.03;;;;;;;8.10;68.20;99961.34;4984344;28;20738;-72
2021/05/04 06:02:39;;;;;;;6.57;4.60;;;;;;;8.20;67.36;99950.72;4972573;28;20221;-72
2021/05/04 06:05:06;;;;;;;8.37;5.43;;;;;;;8.36;66.56;99944.22;4977602;28;20381;-71
2021/05/04 06:07:32;;;;;;;9.83;6.93;;;;;;;8.50;66.66;99949.91;4968088;28;20654;-73
2021/05/04 06:09:58;;;;;;;7.17;5.50;;;;;;;8.78;67.49;99949.09;4974919;28;20224;-73
2021/05/04 06:12:25;;;;;;;6.70;5.20;;;;;;;9.06;66.22;99945.69;4975017;28;20216;-73
2021/05/04 06:14:51;;;;;;;9.47;5.67;;;;;;;9.25;65.41;99939.00;4974334;28;20633;-73
2021/05/04 06:17:17;;;;;;;6.50;4.37;;;;;;;9.40;65.99;99931.63;4978050;28;20240;-71
2021/05/04 06:19:43;;;;;;;5.20;4.43;;;;;;;9.53;64.65;99922.47;4980470;28;20309;-73
2021/05/04 06:22:09;;;;;;;5.87;4.53;;;;;;;9.63;64.05;99921.28;4973326;28;20224;-71
2021/05/04 06:24:35;;;;;;;6.60;4.57;;;;;;;9.69;63.29;99917.63;4978363;28;20208;-73
2021/05/04 06:27:01;;;;;;;7.80;4.33;;;;;;;9.72;63.66;99911.47;4976699;28;20201;-73
2021/05/04 06:29:28;;;;;;;7.77;5.27;;;;;;;9.73;64.29;99910.59;4974533;28;20205;-73
2021/05/04 06:31:58;;;;;;;6.50;4.60;;;;;;;9.74;63.70;99894.03;4980118;28;20617;-73
2021/05/04 06:34:25;;;;;;;6.97;4.37;;;;;;;9.76;63.74;99898.31;4976059;28;20214;-73
2021/05/04 06:36:51;;;;;;;4.40;3.90;;;;;;;9.82;62.47;99882.47;4975014;28;20206;-73
2021/05/04 06:39:17;;;;;;;5.47;4.07;;;;;;;9.92;61.61;99879.53;4977979;28;20326;-73
2021/05/04 06:41:43;;;;;;;6.90;5.10;;;;;;;9.98;61.24;99874.13;4979068;28;20229;-72
2021/05/04 06:44:09;;;;;;;6.73;5.20;;;;;;;10.05;62.08;99863.41;4976262;28;20201;-72
2021/05/04 06:46:36;;;;;;;4.37;3.90;;;;;;;10.14;62.08;99858.78;4976755;28;20300;-72
2021/05/04 06:49:05;;;;;;;6.57;4.50;;;;;;;10.23;61.63;99866.25;4972991;28;20619;-72
2021/05/04 06:51:31;;;;;;;6.20;4.33;;;;;;;10.32;61.72;99854.69;4971774;28;20530;-72
2021/05/04 06:53:57;;;;;;;6.30;4.37;;;;;;;10.41;60.02;99851.72;4976417;28;20276;-73
2021/05/04 06:56:24;;;;;;;8.90;5.00;;;;;;;10.52;60.57;99841.75;4973413;28;20202;-73
2021/05/04 06:58:50;;;;;;;4.73;3.87;;;;;;;10.62;60.32;99824.00;4978094;28;20204;-73
2021/05/04 07:01:16;;;;;;;6.20;3.67;;;;;;;10.74;59.89;99833.94;4980428;28;20250;-73
2021/05/04 07:03:43;;;;;;;8.33;4.60;;;;;;;10.83;60.35;99832.72;4979662;28;20233;-73
2021/05/04 07:06:09;;;;;;;7.33;4.00;;;;;;;10.89;59.73;99816.00;4976958;28;20248;-70
2021/05/04 07:08:35;;;;;;;6.10;3.90;;;;;;;10.97;59.25;99812.16;4979043;28;20945;-72
2021/05/04 07:11:01;;;;;;;6.27;3.70;;;;;;;10.99;58.38;99819.91;4979326;28;20217;-73
2021/05/04 07:13:27;;;;;;;7.03;3.50;;;;;;;11.06;57.88;99808.31;4971944;28;20242;-73
2021/05/04 07:15:53;;;;;;;4.93;3.63;;;;;;;11.08;59.25;99803.03;4976011;28;20194;-73
2021/05/04 07:18:20;;;;;;;6.67;3.50;;;;;;;11.08;58.09;99788.25;4975334;28;20780;-73
2021/05/04 07:20:47;;;;;;;6.40;3.00;;;;;;;11.15;58.32;99779.25;4977330;28;20306;-74
2021/05/04 07:23:13;;;;;;;5.20;3.50;;;;;;;11.14;58.56;99776.72;4974590;28;20200;-73
2021/05/04 07:25:40;;;;;;;5.10;3.77;;;;;;;11.23;58.02;99762.44;4981085;28;20743;-73
2021/05/04 07:28:07;;;;;;;4.60;3.13;;;;;;;11.32;58.81;99751.59;4978771;28;20230;-73
2021/05/04 07:30:34;;;;;;;5.37;2.80;;;;;;;11.44;57.04;99760.66;4968900;28;20199;-73
2021/05/04 07:33:01;;;;;;;4.10;3.13;;;;;;;11.50;56.44;99748.19;4978252;28;20249;-73
2021/05/04 07:35:27;;;;;;;4.23;3.23;;;;;;;11.59;57.80;99739.13;4972642;28;20563;-73
2021/05/04 07:37:55;;;;;;;5.23;3.63;;;;;;;11.71;56.95;99728.13;4974546;28;20200;-72
2021/05/04 07:40:21;;;;;;;6.23;3.87;;;;;;;11.78;56.26;99723.44;4968849;28;20698;-73
2021/05/04 07:42:47;;;;;;;5.60;3.20;;;;;;;11.80;56.40;99726.81;4975847;28;20220;-72
2021/05/04 07:45:13;;;;;;;5.80;3.63;;;;;;;11.75;56.79;99721.00;4982562;28;20217;-73
2021/05/04 07:47:39;;;;;;;5.43;3.83;;;;;;;11.70;56.78;99717.75;4982369;28;20253;-73
2021/05/04 07:50:09;;;;;;;5.37;3.30;;;;;;;11.63;56.07;99711.09;4977957;28;20207;-73
2021/05/04 07:52:35;;;;;;;5.80;3.70;;;;;;;11.66;56.07;99706.59;4975417;28;20299;-73
2021/05/04 07:55:02;;;;;;;5.13;3.40;;;;;;;11.73;57.03;99713.22;4981039;28;20201;-73
2021/05/04 07:57:28;;;;;;;5.13;3.40;;;;;;;11.84;56.14;99707.50;4980096;28;20207;-72
2021/05/04 07:59:55;;;;;;;5.37;3.23;;;;;;;11.95;56.87;99696.59;4983886;28;20189;-72
2021/05/04 08:02:21;;;;;;;3.23;2.93;;;;;;;12.02;54.96;99689.31;4979258;28;20701;-71
2021/05/04 08:04:47;;;;;;;4.23;2.83;;;;;;;12.08;54.55;99682.06;4978359;28;20195;-71
2021/05/04 08:07:13;;;;;;;3.80;2.90;;;;;;;12.31;55.14;99667.00;4983903;28;20642;-72
2021/05/04 08:09:40;;;;;;;5.10;2.67;;;;;;;12.39;53.97;99675.34;4984504;28;20199;-71
2021/05/04 08:12:08;;;;;;;5.73;3.20;;;;;;;12.43;55.41;99655.97;4980457;28;20265;-72
2021/05/04 08:14:34;;;;;;;4.30;3.20;;;;;;;12.47;53.10;99667.09;4982602;28;20587;-72
2021/05/04 08:17:00;;;;;;;5.23;2.57;;;;;;;12.63;53.68;99660.22;4981474;28;20201;-72
2021/05/04 08:19:27;;;;;;;8.00;4.07;;;;;;;12.77;53.74;99656.03;4979253;28;20311;-72
2021/05/04 08:21:54;;;;;;;5.50;3.40;;;;;;;12.73;52.40;99664.97;4974646;28;20225;-71
2021/05/04 08:24:20;;;;;;;4.33;2.80;;;;;;;12.63;52.91;99657.59;4981076;28;20698;-71
2021/05/04 08:26:47;;;;;;;4.90;3.17;;;;;;;12.73;54.01;99649.28;4976210;28;20382;-72
2021/05/04 08:29:14;;;;;;;3.87;2.70;;;;;;;12.82;51.36;99647.06;4980066;28;20593;-70
2021/05/04 08:31:41;;;;;;;5.03;3.20;;;;;;;12.92;53.07;99639.56;4979275;28;20794;-72
2021/05/04 08:34:07;;;;;;;3.30;2.47;;;;;;;12.89;52.41;99660.66;4981934;28;20198;-73
2021/05/04 08:36:33;;;;;;;4.40;3.03;;;;;;;12.88;53.12;99644.13;4976213;28;20194;-72
2021/05/04 08:39:00;;;;;;;4.77;2.87;;;;;;;12.83;53.30;99629.59;4975847;28;20201;-73
2021/05/04 08:41:26;;;;;;;8.43;2.70;;;;;;;12.75;53.26;99627.38;4977678;28;20254;-72
2021/05/04 08:43:52;;;;;;;3.43;2.63;;;;;;;12.69;53.44;99638.13;4979756;28;20203;-72
2021/05/04 08:46:20;;;;;;;4.13;2.90;;;;;;;12.73;53.85;99634.44;4979253;28;20756;-73
2021/05/04 08:48:47;;;;;;;4.73;2.73;;;;;;;12.63;53.52;99622.78;4982363;28;20256;-71
2021/05/04 08:51:14;;;;;;;4.63;2.47;;;;;;;12.54;54.05;99621.47;4979114;28;20237;-71
2021/05/04 08:53:40;;;;;;;5.93;2.90;;;;;;;12.43;54.35;99621.97;4975134;28;20272;-71
2021/05/04 08:56:08;;;;;;;3.47;2.43;;;;;;;12.35;54.34;99638.97;4980359;28;20577;-71
2021/05/04 08:58:34;;;;;;;3.90;3.13;;;;;;;12.23;55.85;99638.66;4975982;28;20197;-71
2021/05/04 09:01:01;;;;;;;8.50;3.10;;;;;;;11.99;59.39;99627.59;4975879;28;20257;-71
2021/05/04 09:03:32;;;;;;;6.17;2.97;;;;;;;11.89;61.19;99632.41;4978460;28;20337;-71
2021/05/04 09:06:02;;;;;;;4.90;3.10;;;;;;;11.63;62.84;99631.00;4977672;28;20567;-71
2021/05/04 09:08:38;;;;;;;5.67;2.60;;;;;;;11.56;64.24;99624.38;4980393;28;20201;-71
2021/05/04 09:11:23;;;;;;;7.07;2.83;;;;;;;11.43;64.68;99624.06;4971340;28;20264;-71
2021/05/04 09:13:54;;;;;;;4.47;2.53;;;;;;;11.24;62.61;99626.69;4980215;28;20846;-70
2021/05/04 09:19:18;;;;;;;2.83;2.53;;;;;;;11.02;64.16;99621.56;4978334;28;20231;-70
2021/05/04 09:21:45;;;;;;;5.20;2.00;;;;;;;10.84;66.03;99633.66;4979391;28;20229;-72
2021/05/04 09:24:40;;;;;;;3.40;2.40;;;;;;;10.74;66.33;99621.91;4978404;28;20723;-71
2021/05/04 09:27:07;;;;;;;3.23;2.20;;;;;;;10.66;67.14;99616.16;4978529;28;20599;-71
2021/05/04 09:29:36;;;;;;;3.13;2.23;;;;;;;10.66;67.13;99617.03;4973199;28;20255;-71
2021/05/04 09:32:11;;;;;;;2.50;1.80;;;;;;;10.67;67.12;99610.91;4972024;28;20206;-71
2021/05/04 09:34:52;;;;;;;2.33;1.90;;;;;;;10.67;67.10;99613.50;4981368;28;20203;-71
2021/05/04 09:37:37;;;;;;;2.40;2.00;;;;;;;10.73;68.70;99605.44;4983464;28;20242;-71
2021/05/04 09:40:22;;;;;;;3.77;2.00;;;;;;;10.75;69.24;99607.97;4979793;28;20215;-71
2021/05/04 09:42:59;;;;;;;3.33;2.10;;;;;;;10.73;70.04;99605.44;4977922;28;20311;-71
2021/05/04 09:45:25;;;;;;;2.70;2.13;;;;;;;10.58;70.33;99608.69;4974710;28;20214;-71
2021/05/04 09:48:16;;;;;;;3.67;2.33;;;;;;;10.50;70.86;99597.72;4974584;28;20283;-71
2021/05/04 09:50:57;;;;;;;2.67;2.27;;;;;;;10.47;72.15;99598.72;4979677;28;21504;-71
2021/05/04 09:53:34;;;;;;;2.87;2.20;;;;;;;10.38;71.31;99597.34;4974854;28;20281;-71
2021/05/04 09:56:01;;;;;;;2.20;2.00;;;;;;;10.42;72.75;99587.63;4981305;28;20198;-71
2021/05/04 09:58:32;;;;;;;2.70;2.37;;;;;;;10.43;72.65;99576.31;4977560;28;20557;-71
2021/05/04 10:00:59;;;;;;;2.70;2.10;;;;;;;10.42;73.15;99570.22;4977356;28;20321;-71
2021/05/04 10:03:26;;;;;;;4.87;2.50;;;;;;;10.47;73.23;99564.00;4980848;28;20194;-71
2021/05/04 10:05:53;;;;;;;4.50;2.00;;;;;;;10.44;72.19;99562.34;4975371;28;20215;-71
2021/05/04 10:08:20;;;;;;;2.73;2.13;;;;;;;10.45;73.16;99561.44;4974303;28;20206;-71
2021/05/04 10:10:46;;;;;;;2.93;2.53;;;;;;;10.46;73.62;99544.06;4977043;28;20702;-71
2021/05/04 10:13:14;;;;;;;3.03;2.47;;;;;;;10.52;74.52;99539.44;4979022;28;20233;-71
2021/05/04 10:15:44;;;;;;;3.33;2.40;;;;;;;10.55;74.34;99536.69;4981278;28;20908;-71
2021/05/04 10:18:12;;;;;;;2.50;2.17;;;;;;;10.60;73.31;99528.66;4961579;28;20209;-71
2021/05/04 10:20:40;;;;;;;2.30;2.10;;;;;;;10.71;73.89;99523.84;4976915;28;20200;-71
2021/05/04 10:23:10;;;;;;;2.10;1.90;;;;;;;10.79;73.19;99510.44;4980868;28;20655;-71
2021/05/04 10:25:37;;;;;;;2.97;2.27;;;;;;;10.92;73.60;99505.53;4973585;28;20220;-71
2021/05/04 10:28:04;;;;;;;2.77;2.00;;;;;;;11.10;73.27;99509.03;4978514;28;20207;-71
2021/05/04 10:30:31;;;;;;;3.13;2.50;;;;;;;11.25;72.45;99510.94;4972336;28;20552;-72
2021/05/04 10:32:59;;;;;;;2.27;2.07;;;;;;;11.40;70.22;99504.19;4976324;28;20318;-71
2021/05/04 10:35:45;;;;;;;3.60;2.20;;;;;;;11.50;68.61;99512.41;4979345;28;20611;-71
2021/05/04 10:38:14;;;;;;;2.20;1.90;;;;;;;11.66;68.52;99510.78;4973326;28;20216;-71
2021/05/04 10:40:42;;;;;;;4.43;1.93;;;;;;;11.88;67.92;99501.88;4980803;28;20205;-71
2021/05/04 10:43:37;;;;;;;2.17;1.73;;;;;;;12.13;66.93;99497.13;4978263;28;20239;-72
2021/05/04 10:46:09;;;;;;;2.13;1.80;;;;;;;12.21;65.26;99509.84;4981699;28;20317;-71
2021/05/04 10:48:41;;;;;;;3.20;2.00;;;;;;;12.29;66.66;99506.81;4973897;28;20962;-71
2021/05/04 10:51:11;;;;;;;2.17;1.97;;;;;;;12.27;64.85;99508.66;4975864;28;20274;-72
2021/05/04 10:54:04;;;;;;;4.77;1.67;;;;;;;12.27;64.41;99521.75;4976619;28;20206;-71
2021/05/04 10:56:36;;;;;;;1.90;1.60;;;;;;;12.25;64.25;99529.66;4974192;28;20212;-72
2021/05/04 10:59:03;;;;;;;3.47;1.60;;;;;;;12.34;63.72;99528.34;4975279;28;20206;-72
2021/05/04 11:01:30;;;;;;;1.70;1.60;;;;;;;12.32;63.32;99544.09;4968037;28;20340;-71
2021/05/04 11:03:59;;;;;;;1.70;1.60;;;;;;;12.21;62.70;99559.50;4974205;28;20209;-71
2021/05/04 11:06:42;;;;;;;2.10;1.50;;;;;;;12.24;63.40;99538.44;4976473;28;20220;-71
2021/05/04 11:09:17;;;;;;;1.80;1.60;;;;;;;12.05;64.09;99556.78;4975837;28;20205;-71
2021/05/04 11:11:46;;;;;;;1.40;1.30;;;;;;;12.00;62.20;99540.50;4974026;28;20255;-72
2021/05/04 11:14:26;;;;;;;1.33;1.23;;;;;;;12.10;62.47;99530.41;4974535;28;20779;-71
2021/05/04 11:17:08;;;;;;;1.73;1.50;;;;;;;12.30;62.24;99522.44;4972230;28;20192;-71
2021/05/04 11:19:36;;;;;;;2.70;1.50;;;;;;;12.50;63.13;99531.00;4956042;28;20303;-71
2021/05/04 11:22:06;;;;;;;2.40;1.23;;;;;;;12.64;63.56;99510.22;4977263;28;20216;-71
2021/05/04 11:24:44;;;;;;;1.70;1.30;;;;;;;12.78;62.62;99508.66;4993964;28;20206;-71
2021/05/04 11:27:24;;;;;;;2.20;1.53;;;;;;;12.79;61.31;99502.53;4978527;28;20225;-71
2021/05/04 11:29:52;;;;;;;2.53;1.60;;;;;;;12.85;62.27;99507.41;4974056;28;20205;-71
2021/05/04 11:32:20;;;;;;;1.77;1.33;;;;;;;12.94;60.32;99500.84;4972198;28;20757;-71
2021/05/04 11:34:53;;;;;;;2.83;1.37;;;;;;;13.22;62.06;99487.09;4977375;28;20280;-71
2021/05/04 11:37:35;;;;;;;1.50;1.20;;;;;;;13.22;59.10;99494.94;4979026;28;20563;-71
2021/05/04 11:40:08;;;;;;;1.70;1.40;;;;;;;13.20;59.11;99484.56;4969491;28;20189;-71